sensor_id;sensor_type;location;lat;lon;timestamp;temperature;humidity
67974;DHT22;54756;51.140;6.952;2024-01-25T00:01:10;9.40;99.90
67974;DHT22;54756;51.140;6.952;2024-01-25T00:03:10;9.40;99.90
67974;DHT22;54756;51.140;6.952;2024-01-25T00:05:11;9.40;99.90
67974;DHT22;54756;51.140;6.952;2024-01-25T00:07:11;9.40;99.90
67974;DHT22;54756;51.140;6.952;2024-01-25T00:09:12;9.40;99.90
67974;DHT22;54756;51.140;6.952;2024-01-25T00:11:13;9.40;99.90
67974;DHT22;54756;51.140;6.952;2024-01-25T00:13:13;9.40;99.90
67974;DHT22;54756;51.140;6.952;2024-01-25T00:15:14;9.40;99.90
67974;DHT22;54756;51.140;6.952;2024-01-25T00:17:14;9.40;99.90
67974;DHT22;54756;51.140;6.952;2024-01-25T00:19:15;9.30;99.90
67974;DHT22;54756;51.140;6.952;2024-01-25T00:21:15;9.30;99.90
67974;DHT22;54756;51.140;6.952;2024-01-25T00:23:16;9.40;99.90
67974;DHT22;54756;51.140;6.952;2024-01-25T00:25:16;9.30;99.90
67974;DHT22;54756;51.140;6.952;2024-01-25T00:27:17;9.30;99.90
67974;DHT22;54756;51.140;6.952;2024-01-25T00:29:17;9.30;99.90
67974;DHT22;54756;51.140;6.952;2024-01-25T00:31:18;9.30;99.90
67974;DHT22;54756;51.140;6.952;2024-01-25T00:33:19;9.40;99.90
67974;DHT22;54756;51.140;6.952;2024-01-25T00:35:20;9.30;99.90
67974;DHT22;54756;51.140;6.952;2024-01-25T00:37:21;9.40;99.90
67974;DHT22;54756;51.140;6.952;2024-01-25T00:39:21;9.40;99.90
67974;DHT22;54756;51.140;6.952;2024-01-25T00:41:22;9.30;99.90
67974;DHT22;54756;51.140;6.952;2024-01-25T00:43:24;9.30;99.90
67974;DHT22;54756;51.140;6.952;2024-01-25T00:45:25;9.30;99.90
67974;DHT22;54756;51.140;6.952;2024-01-25T00:47:25;9.30;99.90
67974;DHT22;54756;51.140;6.952;2024-01-25T00:49:26;9.30;99.90
67974;DHT22;54756;51.140;6.952;2024-01-25T00:51:27;9.30;99.90
67974;DHT22;54756;51.140;6.952;2024-01-25T00:53:28;9.30;99.90
67974;DHT22;54756;51.140;6.952;2024-01-25T00:55:29;9.30;99.90
67974;DHT22;54756;51.140;6.952;2024-01-25T00:57:30;9.30;99.90
67974;DHT22;54756;51.140;6.952;2024-01-25T00:59:30;9.30;99.90
67974;DHT22;54756;51.140;6.952;2024-01-25T01:01:31;9.30;99.90
67974;DHT22;54756;51.140;6.952;2024-01-25T01:03:32;9.30;99.90
67974;DHT22;54756;51.140;6.952;2024-01-25T01:05:33;9.20;99.90
67974;DHT22;54756;51.140;6.952;2024-01-25T01:07:34;9.20;99.90
67974;DHT22;54756;51.140;6.952;2024-01-25T01:09:35;9.20;99.90
67974;DHT22;54756;51.140;6.952;2024-01-25T01:11:36;9.20;99.90
67974;DHT22;54756;51.140;6.952;2024-01-25T01:13:37;9.20;99.90
67974;DHT22;54756;51.140;6.952;2024-01-25T01:15:37;9.20;99.90
67974;DHT22;54756;51.140;6.952;2024-01-25T01:17:38;9.20;99.90
67974;DHT22;54756;51.140;6.952;2024-01-25T01:19:38;9.20;99.90
67974;DHT22;54756;51.140;6.952;2024-01-25T01:21:39;9.20;99.90
67974;DHT22;54756;51.140;6.952;2024-01-25T01:23:43;9.10;99.90
67974;DHT22;54756;51.140;6.952;2024-01-25T01:25:44;9.10;99.90
67974;DHT22;54756;51.140;6.952;2024-01-25T01:27:45;9.20;99.90
67974;DHT22;54756;51.140;6.952;2024-01-25T01:29:45;9.10;99.90
67974;DHT22;54756;51.140;6.952;2024-01-25T01:31:46;9.10;99.90
67974;DHT22;54756;51.140;6.952;2024-01-25T01:33:46;9.10;99.90
67974;DHT22;54756;51.140;6.952;2024-01-25T01:35:47;9.10;99.90
67974;DHT22;54756;51.140;6.952;2024-01-25T01:37:47;9.10;99.90
67974;DHT22;54756;51.140;6.952;2024-01-25T01:39:48;9.10;99.90
67974;DHT22;54756;51.140;6.952;2024-01-25T01:41:48;9.10;99.90
67974;DHT22;54756;51.140;6.952;2024-01-25T01:43:52;9.10;99.90
67974;DHT22;54756;51.140;6.952;2024-01-25T01:46:01;9.10;99.90
67974;DHT22;54756;51.140;6.952;2024-01-25T01:48:04;9.00;99.90
67974;DHT22;54756;51.140;6.952;2024-01-25T01:50:06;9.00;99.90
67974;DHT22;54756;51.140;6.952;2024-01-25T01:52:07;9.00;99.90
67974;DHT22;54756;51.140;6.952;2024-01-25T01:54:09;9.00;99.90
67974;DHT22;54756;51.140;6.952;2024-01-25T01:56:10;9.00;99.90
67974;DHT22;54756;51.140;6.952;2024-01-25T01:58:10;9.00;99.90
67974;DHT22;54756;51.140;6.952;2024-01-25T02:00:11;9.00;99.90
67974;DHT22;54756;51.140;6.952;2024-01-25T02:02:13;9.00;99.90
67974;DHT22;54756;51.140;6.952;2024-01-25T02:04:14;9.00;99.90
67974;DHT22;54756;51.140;6.952;2024-01-25T02:06:14;9.00;99.90
67974;DHT22;54756;51.140;6.952;2024-01-25T02:08:15;9.00;99.90
67974;DHT22;54756;51.140;6.952;2024-01-25T02:10:16;9.00;99.90
67974;DHT22;54756;51.140;6.952;2024-01-25T02:12:16;9.00;99.90
67974;DHT22;54756;51.140;6.952;2024-01-25T02:14:19;9.00;99.90
67974;DHT22;54756;51.140;6.952;2024-01-25T02:16:20;8.90;99.90
67974;DHT22;54756;51.140;6.952;2024-01-25T02:18:20;8.90;99.90
67974;DHT22;54756;51.140;6.952;2024-01-25T02:20:21;8.90;99.90
67974;DHT22;54756;51.140;6.952;2024-01-25T02:22:22;8.90;99.90
67974;DHT22;54756;51.140;6.952;2024-01-25T02:24:22;8.90;99.90
67974;DHT22;54756;51.140;6.952;2024-01-25T02:26:23;8.90;99.90
67974;DHT22;54756;51.140;6.952;2024-01-25T02:28:23;8.90;99.90
67974;DHT22;54756;51.140;6.952;2024-01-25T02:30:24;8.90;99.90
67974;DHT22;54756;51.140;6.952;2024-01-25T02:32:25;8.90;99.90
67974;DHT22;54756;51.140;6.952;2024-01-25T02:34:25;8.90;99.90
67974;DHT22;54756;51.140;6.952;2024-01-25T02:36:26;8.90;99.90
67974;DHT22;54756;51.140;6.952;2024-01-25T02:38:27;8.90;99.90
67974;DHT22;54756;51.140;6.952;2024-01-25T02:40:27;8.90;99.90
67974;DHT22;54756;51.140;6.952;2024-01-25T02:42:28;8.90;99.90
67974;DHT22;54756;51.140;6.952;2024-01-25T02:44:28;8.90;99.90
67974;DHT22;54756;51.140;6.952;2024-01-25T02:46:29;8.80;99.90
67974;DHT22;54756;51.140;6.952;2024-01-25T02:48:31;8.90;99.90
67974;DHT22;54756;51.140;6.952;2024-01-25T02:50:31;8.90;99.90
67974;DHT22;54756;51.140;6.952;2024-01-25T02:52:32;8.90;99.90
67974;DHT22;54756;51.140;6.952;2024-01-25T02:54:35;8.90;99.90
67974;DHT22;54756;51.140;6.952;2024-01-25T02:56:39;8.90;99.90
67974;DHT22;54756;51.140;6.952;2024-01-25T02:58:39;8.90;99.90
67974;DHT22;54756;51.140;6.952;2024-01-25T03:00:40;8.90;99.90
67974;DHT22;54756;51.140;6.952;2024-01-25T03:02:40;8.90;99.90
67974;DHT22;54756;51.140;6.952;2024-01-25T03:04:41;8.90;99.90
67974;DHT22;54756;51.140;6.952;2024-01-25T03:06:41;8.90;99.90
67974;DHT22;54756;51.140;6.952;2024-01-25T03:08:42;8.90;99.90
67974;DHT22;54756;51.140;6.952;2024-01-25T03:10:42;8.90;99.90
67974;DHT22;54756;51.140;6.952;2024-01-25T03:12:43;8.90;99.90
67974;DHT22;54756;51.140;6.952;2024-01-25T03:14:43;8.90;99.90
67974;DHT22;54756;51.140;6.952;2024-01-25T03:16:44;8.90;99.90
67974;DHT22;54756;51.140;6.952;2024-01-25T03:18:44;8.80;99.90
67974;DHT22;54756;51.140;6.952;2024-01-25T03:20:45;8.90;99.90
67974;DHT22;54756;51.140;6.952;2024-01-25T03:22:45;8.80;99.90
67974;DHT22;54756;51.140;6.952;2024-01-25T03:24:46;8.80;99.90
67974;DHT22;54756;51.140;6.952;2024-01-25T03:26:47;8.80;99.90
67974;DHT22;54756;51.140;6.952;2024-01-25T03:28:47;8.80;99.90
67974;DHT22;54756;51.140;6.952;2024-01-25T03:30:48;8.70;99.90
67974;DHT22;54756;51.140;6.952;2024-01-25T03:32:48;8.70;99.90
67974;DHT22;54756;51.140;6.952;2024-01-25T03:34:49;8.70;99.90
67974;DHT22;54756;51.140;6.952;2024-01-25T03:36:49;8.70;99.90
67974;DHT22;54756;51.140;6.952;2024-01-25T03:38:52;8.70;99.90
67974;DHT22;54756;51.140;6.952;2024-01-25T03:40:53;8.70;99.90
67974;DHT22;54756;51.140;6.952;2024-01-25T03:42:54;8.60;99.90
67974;DHT22;54756;51.140;6.952;2024-01-25T03:44:55;8.60;99.90
67974;DHT22;54756;51.140;6.952;2024-01-25T03:46:55;8.70;99.90
67974;DHT22;54756;51.140;6.952;2024-01-25T03:48:56;8.60;99.90
67974;DHT22;54756;51.140;6.952;2024-01-25T03:50:56;8.70;99.90
67974;DHT22;54756;51.140;6.952;2024-01-25T03:52:57;8.70;99.90
67974;DHT22;54756;51.140;6.952;2024-01-25T03:54:57;8.60;99.90
67974;DHT22;54756;51.140;6.952;2024-01-25T03:56:58;8.60;99.90
67974;DHT22;54756;51.140;6.952;2024-01-25T03:58:58;8.60;99.90
67974;DHT22;54756;51.140;6.952;2024-01-25T04:00:59;8.60;99.90
67974;DHT22;54756;51.140;6.952;2024-01-25T04:02:59;8.60;99.90
67974;DHT22;54756;51.140;6.952;2024-01-25T04:05:00;8.60;99.90
67974;DHT22;54756;51.140;6.952;2024-01-25T04:07:01;8.70;99.90
67974;DHT22;54756;51.140;6.952;2024-01-25T04:09:01;8.70;99.90
67974;DHT22;54756;51.140;6.952;2024-01-25T04:11:02;8.60;99.90
67974;DHT22;54756;51.140;6.952;2024-01-25T04:13:02;8.60;99.90
67974;DHT22;54756;51.140;6.952;2024-01-25T04:15:05;8.60;99.90
67974;DHT22;54756;51.140;6.952;2024-01-25T04:17:06;8.60;99.90
67974;DHT22;54756;51.140;6.952;2024-01-25T04:19:06;8.50;99.90
67974;DHT22;54756;51.140;6.952;2024-01-25T04:21:07;8.60;99.90
67974;DHT22;54756;51.140;6.952;2024-01-25T04:23:10;8.50;99.90
67974;DHT22;54756;51.140;6.952;2024-01-25T04:25:10;8.50;99.90
67974;DHT22;54756;51.140;6.952;2024-01-25T04:27:11;8.50;99.90
67974;DHT22;54756;51.140;6.952;2024-01-25T04:29:12;8.50;99.90
67974;DHT22;54756;51.140;6.952;2024-01-25T04:31:12;8.50;99.90
67974;DHT22;54756;51.140;6.952;2024-01-25T04:33:13;8.50;99.90
67974;DHT22;54756;51.140;6.952;2024-01-25T04:35:13;8.50;99.90
67974;DHT22;54756;51.140;6.952;2024-01-25T04:37:14;8.50;99.90
67974;DHT22;54756;51.140;6.952;2024-01-25T04:39:15;8.50;99.90
67974;DHT22;54756;51.140;6.952;2024-01-25T04:41:15;8.50;99.90
67974;DHT22;54756;51.140;6.952;2024-01-25T04:43:16;8.50;99.90
67974;DHT22;54756;51.140;6.952;2024-01-25T04:45:16;8.50;99.90
67974;DHT22;54756;51.140;6.952;2024-01-25T04:47:17;8.50;99.90
67974;DHT22;54756;51.140;6.952;2024-01-25T04:49:17;8.50;99.90
67974;DHT22;54756;51.140;6.952;2024-01-25T04:51:19;8.50;99.90
67974;DHT22;54756;51.140;6.952;2024-01-25T04:53:20;8.50;99.90
67974;DHT22;54756;51.140;6.952;2024-01-25T04:55:21;8.50;99.90
67974;DHT22;54756;51.140;6.952;2024-01-25T04:57:21;8.50;99.90
67974;DHT22;54756;51.140;6.952;2024-01-25T04:59:22;8.50;99.90
67974;DHT22;54756;51.140;6.952;2024-01-25T05:01:22;8.50;99.90
67974;DHT22;54756;51.140;6.952;2024-01-25T05:03:24;8.40;99.90
67974;DHT22;54756;51.140;6.952;2024-01-25T05:05:25;8.40;99.90
67974;DHT22;54756;51.140;6.952;2024-01-25T05:07:25;8.30;99.90
67974;DHT22;54756;51.140;6.952;2024-01-25T05:09:26;8.30;99.90
67974;DHT22;54756;51.140;6.952;2024-01-25T05:11:26;8.30;99.90
67974;DHT22;54756;51.140;6.952;2024-01-25T05:13:27;8.30;99.90
67974;DHT22;54756;51.140;6.952;2024-01-25T05:15:27;8.30;99.90
67974;DHT22;54756;51.140;6.952;2024-01-25T05:17:28;8.30;99.90
67974;DHT22;54756;51.140;6.952;2024-01-25T05:19:28;8.30;99.90
67974;DHT22;54756;51.140;6.952;2024-01-25T05:21:29;8.30;99.90
67974;DHT22;54756;51.140;6.952;2024-01-25T05:23:30;8.30;99.90
67974;DHT22;54756;51.140;6.952;2024-01-25T05:25:31;8.30;99.90
67974;DHT22;54756;51.140;6.952;2024-01-25T05:27:31;8.30;99.90
67974;DHT22;54756;51.140;6.952;2024-01-25T05:29:32;8.30;99.90
67974;DHT22;54756;51.140;6.952;2024-01-25T05:31:33;8.30;99.90
67974;DHT22;54756;51.140;6.952;2024-01-25T05:33:33;8.20;99.90
67974;DHT22;54756;51.140;6.952;2024-01-25T05:35:34;8.30;99.90
67974;DHT22;54756;51.140;6.952;2024-01-25T05:37:35;8.20;99.90
67974;DHT22;54756;51.140;6.952;2024-01-25T05:39:36;8.20;99.90
67974;DHT22;54756;51.140;6.952;2024-01-25T05:41:36;8.20;99.90
67974;DHT22;54756;51.140;6.952;2024-01-25T05:43:37;8.20;99.90
67974;DHT22;54756;51.140;6.952;2024-01-25T05:45:38;8.20;99.90
67974;DHT22;54756;51.140;6.952;2024-01-25T05:47:38;8.20;99.90
67974;DHT22;54756;51.140;6.952;2024-01-25T05:49:40;8.10;99.90
67974;DHT22;54756;51.140;6.952;2024-01-25T05:51:40;8.20;99.90
67974;DHT22;54756;51.140;6.952;2024-01-25T05:53:41;8.10;99.90
67974;DHT22;54756;51.140;6.952;2024-01-25T05:55:41;8.10;99.90
67974;DHT22;54756;51.140;6.952;2024-01-25T05:57:43;8.10;99.90
67974;DHT22;54756;51.140;6.952;2024-01-25T05:59:44;8.00;99.90
67974;DHT22;54756;51.140;6.952;2024-01-25T06:01:45;8.00;99.90
67974;DHT22;54756;51.140;6.952;2024-01-25T06:03:45;8.00;99.90
67974;DHT22;54756;51.140;6.952;2024-01-25T06:05:46;8.00;99.90
67974;DHT22;54756;51.140;6.952;2024-01-25T06:07:46;8.00;99.90
67974;DHT22;54756;51.140;6.952;2024-01-25T06:09:49;7.90;99.90
67974;DHT22;54756;51.140;6.952;2024-01-25T06:11:49;7.80;99.90
67974;DHT22;54756;51.140;6.952;2024-01-25T06:13:50;7.70;99.90
67974;DHT22;54756;51.140;6.952;2024-01-25T06:15:50;7.60;99.90
67974;DHT22;54756;51.140;6.952;2024-01-25T06:17:51;7.60;99.90
67974;DHT22;54756;51.140;6.952;2024-01-25T06:19:51;7.60;99.90
67974;DHT22;54756;51.140;6.952;2024-01-25T06:21:52;7.60;99.90
67974;DHT22;54756;51.140;6.952;2024-01-25T06:23:53;7.50;99.90
67974;DHT22;54756;51.140;6.952;2024-01-25T06:25:53;7.50;99.90
67974;DHT22;54756;51.140;6.952;2024-01-25T06:27:54;7.50;99.90
67974;DHT22;54756;51.140;6.952;2024-01-25T06:29:55;7.50;99.90
67974;DHT22;54756;51.140;6.952;2024-01-25T06:31:55;7.50;99.90
67974;DHT22;54756;51.140;6.952;2024-01-25T06:33:56;7.50;99.90
67974;DHT22;54756;51.140;6.952;2024-01-25T06:35:57;7.60;99.90
67974;DHT22;54756;51.140;6.952;2024-01-25T06:37:58;7.60;99.90
67974;DHT22;54756;51.140;6.952;2024-01-25T06:39:59;7.60;99.90
67974;DHT22;54756;51.140;6.952;2024-01-25T06:41:59;7.60;99.90
67974;DHT22;54756;51.140;6.952;2024-01-25T06:44:00;7.60;99.90
67974;DHT22;54756;51.140;6.952;2024-01-25T06:46:00;7.50;99.90
67974;DHT22;54756;51.140;6.952;2024-01-25T06:48:01;7.40;99.90
67974;DHT22;54756;51.140;6.952;2024-01-25T06:50:02;7.30;99.90
67974;DHT22;54756;51.140;6.952;2024-01-25T06:52:02;7.10;99.90
67974;DHT22;54756;51.140;6.952;2024-01-25T06:54:03;7.00;99.90
67974;DHT22;54756;51.140;6.952;2024-01-25T06:56:04;6.90;99.90
67974;DHT22;54756;51.140;6.952;2024-01-25T06:58:05;6.80;99.90
67974;DHT22;54756;51.140;6.952;2024-01-25T07:00:06;6.70;99.90
67974;DHT22;54756;51.140;6.952;2024-01-25T07:02:06;6.60;99.90
67974;DHT22;54756;51.140;6.952;2024-01-25T07:04:07;6.60;99.90
67974;DHT22;54756;51.140;6.952;2024-01-25T07:06:08;6.50;99.90
67974;DHT22;54756;51.140;6.952;2024-01-25T07:08:08;6.40;99.90
67974;DHT22;54756;51.140;6.952;2024-01-25T07:10:13;6.40;99.90
67974;DHT22;54756;51.140;6.952;2024-01-25T07:12:13;6.30;99.90
67974;DHT22;54756;51.140;6.952;2024-01-25T07:14:14;6.30;99.90
67974;DHT22;54756;51.140;6.952;2024-01-25T07:16:14;6.20;99.90
67974;DHT22;54756;51.140;6.952;2024-01-25T07:18:15;6.20;99.90
67974;DHT22;54756;51.140;6.952;2024-01-25T07:20:16;6.10;99.90
67974;DHT22;54756;51.140;6.952;2024-01-25T07:22:16;6.10;99.90
67974;DHT22;54756;51.140;6.952;2024-01-25T07:24:18;6.10;99.90
67974;DHT22;54756;51.140;6.952;2024-01-25T07:26:19;6.00;99.90
67974;DHT22;54756;51.140;6.952;2024-01-25T07:28:20;5.90;99.90
67974;DHT22;54756;51.140;6.952;2024-01-25T07:30:20;5.90;99.90
67974;DHT22;54756;51.140;6.952;2024-01-25T07:32:21;5.80;99.90
67974;DHT22;54756;51.140;6.952;2024-01-25T07:34:24;5.80;99.90
67974;DHT22;54756;51.140;6.952;2024-01-25T07:36:24;5.80;99.90
67974;DHT22;54756;51.140;6.952;2024-01-25T07:38:25;5.80;99.90
67974;DHT22;54756;51.140;6.952;2024-01-25T07:40:25;5.80;99.90
67974;DHT22;54756;51.140;6.952;2024-01-25T07:42:26;5.80;99.90
67974;DHT22;54756;51.140;6.952;2024-01-25T07:44:27;5.80;99.90
67974;DHT22;54756;51.140;6.952;2024-01-25T07:46:27;5.70;99.90
67974;DHT22;54756;51.140;6.952;2024-01-25T07:48:28;5.70;99.90
67974;DHT22;54756;51.140;6.952;2024-01-25T07:50:28;5.70;99.90
67974;DHT22;54756;51.140;6.952;2024-01-25T07:52:29;5.70;99.90
67974;DHT22;54756;51.140;6.952;2024-01-25T07:54:29;5.70;99.90
67974;DHT22;54756;51.140;6.952;2024-01-25T07:56:30;5.70;99.90
67974;DHT22;54756;51.140;6.952;2024-01-25T07:58:30;5.70;99.90
67974;DHT22;54756;51.140;6.952;2024-01-25T08:00:31;5.70;99.90
67974;DHT22;54756;51.140;6.952;2024-01-25T08:02:32;5.70;99.90
67974;DHT22;54756;51.140;6.952;2024-01-25T08:04:32;5.70;99.90
67974;DHT22;54756;51.140;6.952;2024-01-25T08:06:33;5.70;99.90
67974;DHT22;54756;51.140;6.952;2024-01-25T08:08:33;5.70;99.90
67974;DHT22;54756;51.140;6.952;2024-01-25T08:10:34;5.70;99.90
67974;DHT22;54756;51.140;6.952;2024-01-25T08:12:34;5.70;99.90
67974;DHT22;54756;51.140;6.952;2024-01-25T08:14:35;5.80;99.90
67974;DHT22;54756;51.140;6.952;2024-01-25T08:16:35;5.80;99.90
67974;DHT22;54756;51.140;6.952;2024-01-25T08:18:36;5.80;99.90
67974;DHT22;54756;51.140;6.952;2024-01-25T08:20:37;5.80;99.90
67974;DHT22;54756;51.140;6.952;2024-01-25T08:22:38;5.80;99.90
67974;DHT22;54756;51.140;6.952;2024-01-25T08:24:39;5.80;99.90
67974;DHT22;54756;51.140;6.952;2024-01-25T08:26:40;5.80;99.90
67974;DHT22;54756;51.140;6.952;2024-01-25T08:28:41;5.80;99.90
67974;DHT22;54756;51.140;6.952;2024-01-25T08:30:43;5.90;99.90
67974;DHT22;54756;51.140;6.952;2024-01-25T08:32:44;5.90;99.90
67974;DHT22;54756;51.140;6.952;2024-01-25T08:34:45;5.90;99.90
67974;DHT22;54756;51.140;6.952;2024-01-25T08:36:45;5.90;99.90
67974;DHT22;54756;51.140;6.952;2024-01-25T08:38:46;6.00;99.90
67974;DHT22;54756;51.140;6.952;2024-01-25T08:40:46;6.00;99.90
67974;DHT22;54756;51.140;6.952;2024-01-25T08:42:47;6.00;99.90
67974;DHT22;54756;51.140;6.952;2024-01-25T08:44:47;6.00;99.90
67974;DHT22;54756;51.140;6.952;2024-01-25T08:46:51;6.00;99.90
67974;DHT22;54756;51.140;6.952;2024-01-25T08:48:52;6.00;99.90
67974;DHT22;54756;51.140;6.952;2024-01-25T08:50:52;6.10;99.90
67974;DHT22;54756;51.140;6.952;2024-01-25T08:52:54;6.10;99.90
67974;DHT22;54756;51.140;6.952;2024-01-25T08:54:55;6.10;99.90
67974;DHT22;54756;51.140;6.952;2024-01-25T08:56:56;6.10;99.90
67974;DHT22;54756;51.140;6.952;2024-01-25T08:58:56;6.20;99.90
67974;DHT22;54756;51.140;6.952;2024-01-25T09:00:57;6.20;99.90
67974;DHT22;54756;51.140;6.952;2024-01-25T09:02:58;6.20;99.90
67974;DHT22;54756;51.140;6.952;2024-01-25T09:04:58;6.30;99.90
67974;DHT22;54756;51.140;6.952;2024-01-25T09:06:59;6.30;99.90
67974;DHT22;54756;51.140;6.952;2024-01-25T09:09:00;6.30;99.90
67974;DHT22;54756;51.140;6.952;2024-01-25T09:11:00;6.30;99.90
67974;DHT22;54756;51.140;6.952;2024-01-25T09:13:01;6.40;99.90
67974;DHT22;54756;51.140;6.952;2024-01-25T09:15:02;6.40;99.90
67974;DHT22;54756;51.140;6.952;2024-01-25T09:17:03;6.40;99.90
67974;DHT22;54756;51.140;6.952;2024-01-25T09:19:04;6.50;99.90
67974;DHT22;54756;51.140;6.952;2024-01-25T09:21:05;6.50;99.90
67974;DHT22;54756;51.140;6.952;2024-01-25T09:23:05;6.50;99.90
67974;DHT22;54756;51.140;6.952;2024-01-25T09:25:06;6.60;99.90
67974;DHT22;54756;51.140;6.952;2024-01-25T09:27:07;6.60;99.90
67974;DHT22;54756;51.140;6.952;2024-01-25T09:29:08;6.70;99.90
67974;DHT22;54756;51.140;6.952;2024-01-25T09:31:09;6.60;99.90
67974;DHT22;54756;51.140;6.952;2024-01-25T09:33:10;6.70;99.90
67974;DHT22;54756;51.140;6.952;2024-01-25T09:35:11;6.70;99.90
67974;DHT22;54756;51.140;6.952;2024-01-25T09:37:11;6.70;99.90
67974;DHT22;54756;51.140;6.952;2024-01-25T09:39:12;6.70;99.90
67974;DHT22;54756;51.140;6.952;2024-01-25T09:41:12;6.80;99.90
67974;DHT22;54756;51.140;6.952;2024-01-25T09:43:14;6.80;99.90
67974;DHT22;54756;51.140;6.952;2024-01-25T09:45:18;6.80;99.90
67974;DHT22;54756;51.140;6.952;2024-01-25T09:47:19;6.90;99.90
67974;DHT22;54756;51.140;6.952;2024-01-25T09:49:21;6.90;99.90
67974;DHT22;54756;51.140;6.952;2024-01-25T09:51:22;6.90;99.90
67974;DHT22;54756;51.140;6.952;2024-01-25T09:53:23;7.00;99.90
67974;DHT22;54756;51.140;6.952;2024-01-25T09:55:25;7.00;99.90
67974;DHT22;54756;51.140;6.952;2024-01-25T09:57:28;7.00;99.90
67974;DHT22;54756;51.140;6.952;2024-01-25T09:59:28;7.10;99.90
67974;DHT22;54756;51.140;6.952;2024-01-25T10:01:29;7.10;99.90
67974;DHT22;54756;51.140;6.952;2024-01-25T10:03:29;7.10;99.90
67974;DHT22;54756;51.140;6.952;2024-01-25T10:05:31;7.10;99.90
67974;DHT22;54756;51.140;6.952;2024-01-25T10:07:42;7.20;99.90
67974;DHT22;54756;51.140;6.952;2024-01-25T10:09:42;7.20;99.90
67974;DHT22;54756;51.140;6.952;2024-01-25T10:11:43;7.30;99.90
67974;DHT22;54756;51.140;6.952;2024-01-25T10:13:45;7.30;99.90
67974;DHT22;54756;51.140;6.952;2024-01-25T10:15:46;7.30;99.90
67974;DHT22;54756;51.140;6.952;2024-01-25T10:17:49;7.40;99.90
67974;DHT22;54756;51.140;6.952;2024-01-25T10:19:49;7.40;99.90
67974;DHT22;54756;51.140;6.952;2024-01-25T10:21:50;7.50;99.90
67974;DHT22;54756;51.140;6.952;2024-01-25T10:23:50;7.50;99.90
67974;DHT22;54756;51.140;6.952;2024-01-25T10:25:51;7.50;99.90
67974;DHT22;54756;51.140;6.952;2024-01-25T10:27:52;7.50;99.90
67974;DHT22;54756;51.140;6.952;2024-01-25T10:29:53;7.60;99.90
67974;DHT22;54756;51.140;6.952;2024-01-25T10:31:53;7.60;99.90
67974;DHT22;54756;51.140;6.952;2024-01-25T10:33:54;7.60;99.90
67974;DHT22;54756;51.140;6.952;2024-01-25T10:36:00;7.60;99.90
67974;DHT22;54756;51.140;6.952;2024-01-25T10:38:04;7.60;99.90
67974;DHT22;54756;51.140;6.952;2024-01-25T10:40:05;7.70;99.90
67974;DHT22;54756;51.140;6.952;2024-01-25T10:42:06;7.70;99.90
67974;DHT22;54756;51.140;6.952;2024-01-25T10:44:07;7.70;99.90
67974;DHT22;54756;51.140;6.952;2024-01-25T10:46:08;7.70;99.90
67974;DHT22;54756;51.140;6.952;2024-01-25T10:48:09;7.80;99.90
67974;DHT22;54756;51.140;6.952;2024-01-25T10:50:12;7.80;99.90
67974;DHT22;54756;51.140;6.952;2024-01-25T10:52:13;7.80;99.90
67974;DHT22;54756;51.140;6.952;2024-01-25T10:54:15;7.80;99.90
67974;DHT22;54756;51.140;6.952;2024-01-25T10:56:16;7.80;99.90
67974;DHT22;54756;51.140;6.952;2024-01-25T10:58:17;7.80;99.90
67974;DHT22;54756;51.140;6.952;2024-01-25T11:00:17;7.90;99.90
67974;DHT22;54756;51.140;6.952;2024-01-25T11:02:18;7.90;99.90
67974;DHT22;54756;51.140;6.952;2024-01-25T11:04:20;7.90;99.90
67974;DHT22;54756;51.140;6.952;2024-01-25T11:06:21;7.90;99.90
67974;DHT22;54756;51.140;6.952;2024-01-25T11:08:25;7.90;99.90
67974;DHT22;54756;51.140;6.952;2024-01-25T11:10:26;7.90;99.90
67974;DHT22;54756;51.140;6.952;2024-01-25T11:12:27;7.90;99.90
67974;DHT22;54756;51.140;6.952;2024-01-25T11:14:28;7.90;99.90
67974;DHT22;54756;51.140;6.952;2024-01-25T11:16:31;7.90;99.90
67974;DHT22;54756;51.140;6.952;2024-01-25T11:18:33;7.90;99.90
67974;DHT22;54756;51.140;6.952;2024-01-25T11:20:36;8.00;99.90
67974;DHT22;54756;51.140;6.952;2024-01-25T11:22:36;8.00;99.90
67974;DHT22;54756;51.140;6.952;2024-01-25T11:24:38;8.00;99.90
67974;DHT22;54756;51.140;6.952;2024-01-25T11:26:39;8.00;99.90
67974;DHT22;54756;51.140;6.952;2024-01-25T11:28:40;8.10;99.90
67974;DHT22;54756;51.140;6.952;2024-01-25T11:30:40;8.10;99.90
67974;DHT22;54756;51.140;6.952;2024-01-25T11:32:42;8.10;99.90
67974;DHT22;54756;51.140;6.952;2024-01-25T11:34:43;8.10;99.90
67974;DHT22;54756;51.140;6.952;2024-01-25T11:36:44;8.20;99.90
67974;DHT22;54756;51.140;6.952;2024-01-25T11:38:45;8.10;99.90
67974;DHT22;54756;51.140;6.952;2024-01-25T11:40:45;8.20;99.90
67974;DHT22;54756;51.140;6.952;2024-01-25T11:42:48;8.20;99.90
67974;DHT22;54756;51.140;6.952;2024-01-25T11:44:48;8.20;99.90
67974;DHT22;54756;51.140;6.952;2024-01-25T11:46:49;8.20;99.90
67974;DHT22;54756;51.140;6.952;2024-01-25T11:48:50;8.20;99.90
67974;DHT22;54756;51.140;6.952;2024-01-25T11:50:50;8.20;99.90
67974;DHT22;54756;51.140;6.952;2024-01-25T11:52:51;8.20;99.90
67974;DHT22;54756;51.140;6.952;2024-01-25T11:54:51;8.30;99.90
67974;DHT22;54756;51.140;6.952;2024-01-25T11:56:52;8.20;99.90
67974;DHT22;54756;51.140;6.952;2024-01-25T11:58:53;8.30;99.90
67974;DHT22;54756;51.140;6.952;2024-01-25T12:00:56;8.30;99.90
67974;DHT22;54756;51.140;6.952;2024-01-25T12:02:57;8.30;99.90
67974;DHT22;54756;51.140;6.952;2024-01-25T12:04:58;8.30;99.90
67974;DHT22;54756;51.140;6.952;2024-01-25T12:06:59;8.30;99.90
67974;DHT22;54756;51.140;6.952;2024-01-25T12:09:09;8.40;99.90
67974;DHT22;54756;51.140;6.952;2024-01-25T12:11:10;8.30;99.90
67974;DHT22;54756;51.140;6.952;2024-01-25T12:13:11;8.40;99.90
67974;DHT22;54756;51.140;6.952;2024-01-25T12:15:12;8.40;99.90
67974;DHT22;54756;51.140;6.952;2024-01-25T12:17:12;8.40;99.90
67974;DHT22;54756;51.140;6.952;2024-01-25T12:19:14;8.50;99.90
67974;DHT22;54756;51.140;6.952;2024-01-25T12:21:15;8.40;99.90
67974;DHT22;54756;51.140;6.952;2024-01-25T12:23:15;8.40;99.90
67974;DHT22;54756;51.140;6.952;2024-01-25T12:25:16;8.50;99.90
67974;DHT22;54756;51.140;6.952;2024-01-25T12:27:16;8.50;99.90
67974;DHT22;54756;51.140;6.952;2024-01-25T12:29:17;8.50;99.90
67974;DHT22;54756;51.140;6.952;2024-01-25T12:31:18;8.50;99.90
67974;DHT22;54756;51.140;6.952;2024-01-25T12:33:18;8.50;99.90
67974;DHT22;54756;51.140;6.952;2024-01-25T12:35:19;8.60;99.90
67974;DHT22;54756;51.140;6.952;2024-01-25T12:37:19;8.60;99.90
67974;DHT22;54756;51.140;6.952;2024-01-25T12:39:20;8.60;99.90
67974;DHT22;54756;51.140;6.952;2024-01-25T12:41:21;8.60;99.90
67974;DHT22;54756;51.140;6.952;2024-01-25T12:43:21;8.70;99.90
67974;DHT22;54756;51.140;6.952;2024-01-25T12:45:22;8.70;99.90
67974;DHT22;54756;51.140;6.952;2024-01-25T12:47:22;8.70;99.90
67974;DHT22;54756;51.140;6.952;2024-01-25T12:49:23;8.70;99.90
67974;DHT22;54756;51.140;6.952;2024-01-25T12:51:24;8.70;99.90
67974;DHT22;54756;51.140;6.952;2024-01-25T12:53:25;8.70;99.90
67974;DHT22;54756;51.140;6.952;2024-01-25T12:55:26;8.70;99.90